createdAt,value
2022-10-04T00:02:13.596Z,19.40
2022-10-04T00:05:03.359Z,18.10
2022-10-04T00:07:59.531Z,17.80
2022-10-04T00:10:34.378Z,20.43
2022-10-04T00:13:19.983Z,19.87
2022-10-04T00:15:52.103Z,18.47
2022-10-04T00:18:45.366Z,18.03
2022-10-04T00:21:13.452Z,16.63
2022-10-04T00:23:46.960Z,17.13
2022-10-04T00:26:39.401Z,22.43
2022-10-04T00:29:37.603Z,15.27
2022-10-04T00:32:11.352Z,17.73
2022-10-04T00:34:53.764Z,16.50
2022-10-04T00:37:25.593Z,17.23
2022-10-04T00:40:21.082Z,15.83
2022-10-04T00:43:07.282Z,19.30
2022-10-04T00:45:58.481Z,23.13
2022-10-04T00:48:46.941Z,21.80
2022-10-04T00:51:43.025Z,17.47
2022-10-04T00:54:51.257Z,13.53
2022-10-04T00:57:32.588Z,22.23
2022-10-04T01:00:15.373Z,20.83
2022-10-04T01:02:45.757Z,18.30
2022-10-04T01:05:39.779Z,18.33
2022-10-04T01:08:33.238Z,17.40
2022-10-04T01:11:21.346Z,17.13
2022-10-04T01:14:21.319Z,20.40
2022-10-04T01:16:51.629Z,15.40
2022-10-04T01:19:31.318Z,24.23
2022-10-04T01:22:34.261Z,14.17
2022-10-04T01:25:04.625Z,15.63
2022-10-04T01:27:44.149Z,16.90
2022-10-04T01:30:18.159Z,21.23
2022-10-04T01:32:45.948Z,22.30
2022-10-04T01:35:16.289Z,14.70
2022-10-04T01:37:44.157Z,20.20
2022-10-04T01:40:12.403Z,15.90
2022-10-04T01:42:58.070Z,19.53
2022-10-04T01:45:54.590Z,16.97
2022-10-04T01:48:36.085Z,17.20
2022-10-04T01:51:24.281Z,16.77
2022-10-04T01:54:12.955Z,19.20
2022-10-04T01:57:02.405Z,22.63
2022-10-04T01:59:55.495Z,18.90
2022-10-04T02:02:52.818Z,19.73
2022-10-04T02:05:51.202Z,24.13
2022-10-04T02:08:33.074Z,20.27
2022-10-04T02:11:06.185Z,21.00
2022-10-04T02:13:40.575Z,18.07
2022-10-04T02:16:13.260Z,18.53
2022-10-04T02:18:44.558Z,20.37
2022-10-04T02:21:16.369Z,19.00
2022-10-04T02:23:47.295Z,20.60
2022-10-04T02:26:15.952Z,14.77
2022-10-04T02:28:43.855Z,17.77
2022-10-04T02:31:30.858Z,21.03
2022-10-04T02:34:00.803Z,17.00
2022-10-04T02:36:30.334Z,24.17
2022-10-04T02:39:32.855Z,17.40
2022-10-04T02:42:25.677Z,24.63
2022-10-04T02:46:22.728Z,17.80
2022-10-04T02:49:06.067Z,18.53
2022-10-04T02:51:54.782Z,22.60
2022-10-04T02:54:56.403Z,18.17
2022-10-04T02:57:25.085Z,27.03
2022-10-04T03:00:27.346Z,23.53
2022-10-04T03:03:33.040Z,19.23
2022-10-04T03:06:13.170Z,23.13
2022-10-04T03:09:04.964Z,22.40
2022-10-04T03:11:40.868Z,17.60
2022-10-04T03:14:25.129Z,20.90
2022-10-04T03:17:00.834Z,20.70
2022-10-04T03:19:33.613Z,21.17
2022-10-04T03:22:11.495Z,18.73
2022-10-04T03:24:56.790Z,21.37
2022-10-04T03:27:36.320Z,21.40
2022-10-04T03:30:05.174Z,17.27
2022-10-04T03:32:34.233Z,16.90
2022-10-04T03:35:31.492Z,18.27
2022-10-04T03:38:03.275Z,15.70
2022-10-04T03:40:34.725Z,19.57
2022-10-04T03:43:06.729Z,17.17
2022-10-04T03:45:35.421Z,17.67
2022-10-04T03:48:13.349Z,23.03
2022-10-04T03:50:50.607Z,18.97
2022-10-04T03:53:43.437Z,20.50
2022-10-04T03:56:26.896Z,15.00
2022-10-04T03:58:56.627Z,16.03
2022-10-04T04:02:09.667Z,14.37
2022-10-04T04:05:24.858Z,20.57
2022-10-04T04:08:28.342Z,17.37
2022-10-04T04:11:03.010Z,20.17
2022-10-04T04:14:12.838Z,17.43
2022-10-04T04:16:41.255Z,27.00
2022-10-04T04:19:22.764Z,26.30
2022-10-04T04:21:55.869Z,22.10
2022-10-04T04:24:33.111Z,23.60
2022-10-04T04:27:05.433Z,17.20
2022-10-04T04:29:53.259Z,21.97
2022-10-04T04:32:51.087Z,21.60
2022-10-04T04:35:37.947Z,18.77
2022-10-04T04:38:23.288Z,17.47
2022-10-04T04:40:55.839Z,26.20
2022-10-04T04:43:28.349Z,19.67
2022-10-04T04:46:25.540Z,25.50
2022-10-04T04:49:01.481Z,22.23
2022-10-04T04:51:33.308Z,16.83
2022-10-04T04:54:07.250Z,20.50
2022-10-04T04:56:36.266Z,24.10
2022-10-04T04:59:08.835Z,17.07
2022-10-04T05:01:50.511Z,23.47
2022-10-04T05:04:23.972Z,16.23
2022-10-04T05:07:06.824Z,20.40
2022-10-04T05:09:38.846Z,26.87
2022-10-04T05:12:24.790Z,22.13
2022-10-04T05:14:57.125Z,19.40
2022-10-04T05:17:35.990Z,23.20
2022-10-04T05:20:05.565Z,16.87
2022-10-04T05:22:35.339Z,21.10
2022-10-04T05:25:19.305Z,27.03
2022-10-04T05:27:47.332Z,20.57
2022-10-04T05:31:24.017Z,21.03
2022-10-04T05:33:58.735Z,16.40
2022-10-04T05:37:10.703Z,17.67
2022-10-04T05:40:15.262Z,24.80
2022-10-04T05:42:46.890Z,19.20
2022-10-04T05:45:28.261Z,17.90
2022-10-04T05:48:01.638Z,17.90
2022-10-04T05:50:49.658Z,22.63
2022-10-04T05:53:33.565Z,24.53
2022-10-04T05:56:31.382Z,21.43
2022-10-04T05:59:22.697Z,21.10
2022-10-04T06:02:41.029Z,15.00
2022-10-04T06:06:39.204Z,18.13
2022-10-04T06:10:14.629Z,20.50
2022-10-04T06:13:02.519Z,22.77
2022-10-04T06:16:23.652Z,17.63
2022-10-04T06:19:27.920Z,19.77
2022-10-04T06:22:23.523Z,20.80
2022-10-04T06:25:47.425Z,20.20
2022-10-04T06:28:29.289Z,20.33
2022-10-04T06:31:16.307Z,23.23
2022-10-04T06:34:49.179Z,18.80
2022-10-04T06:38:10.257Z,22.47
2022-10-04T06:41:29.077Z,26.03
2022-10-04T06:44:51.570Z,13.70
2022-10-04T06:48:06.166Z,17.90
2022-10-04T06:51:26.279Z,30.07
2022-10-04T06:54:32.072Z,18.63
2022-10-04T06:57:50.708Z,18.23
2022-10-04T07:00:31.458Z,25.83
2022-10-04T07:03:17.388Z,16.37
2022-10-04T07:06:11.439Z,16.10
2022-10-04T07:08:56.185Z,19.90
2022-10-04T07:12:16.258Z,14.33
2022-10-04T07:15:00.385Z,23.23
2022-10-04T07:17:40.442Z,13.67
2022-10-04T07:20:33.992Z,12.73
2022-10-04T07:23:32.477Z,9.67
2022-10-04T07:26:21.356Z,12.93
2022-10-04T07:29:10.288Z,15.37
2022-10-04T07:31:41.976Z,15.73
2022-10-04T07:34:30.884Z,19.27
2022-10-04T07:37:10.586Z,12.20
2022-10-04T07:40:19.267Z,12.07
2022-10-04T07:43:00.687Z,11.57
2022-10-04T07:45:40.905Z,13.90
2022-10-04T07:48:23.544Z,13.87
2022-10-04T07:51:49.464Z,12.13
2022-10-04T07:54:45.022Z,12.17
2022-10-04T07:57:54.766Z,16.27
2022-10-04T08:01:14.237Z,11.83
2022-10-04T08:04:14.341Z,11.30
2022-10-04T08:07:03.624Z,16.80
2022-10-04T08:10:08.344Z,13.43
2022-10-04T08:13:12.941Z,11.37
2022-10-04T08:15:45.268Z,12.90
2022-10-04T08:19:10.267Z,11.37
2022-10-04T08:22:20.625Z,9.87
2022-10-04T08:25:58.841Z,12.63
2022-10-04T08:29:44.227Z,18.13
2022-10-04T08:33:47.440Z,13.13
2022-10-04T08:37:27.457Z,10.27
2022-10-04T08:40:49.844Z,11.07
2022-10-04T08:44:15.817Z,9.13
2022-10-04T08:48:25.628Z,9.63
2022-10-04T08:51:55.929Z,9.93
2022-10-04T08:55:07.093Z,10.47
2022-10-04T08:58:13.746Z,10.07
2022-10-04T09:01:15.883Z,10.03
2022-10-04T09:05:09.498Z,11.73
2022-10-04T09:08:42.596Z,8.93
2022-10-04T09:11:44.655Z,13.23
2022-10-04T09:15:03.477Z,7.90
2022-10-04T09:18:05.628Z,8.00
2022-10-04T09:21:03.103Z,9.17
2022-10-04T09:24:28.863Z,6.73
2022-10-04T09:27:59.518Z,10.50
2022-10-04T09:31:05.372Z,12.63
2022-10-04T09:34:35.093Z,12.60
2022-10-04T09:37:57.208Z,10.70
2022-10-04T09:41:36.035Z,7.33
2022-10-04T09:44:52.707Z,10.90
2022-10-04T09:47:46.329Z,8.23
2022-10-04T09:50:41.114Z,7.77
2022-10-04T09:54:07.043Z,10.43
2022-10-04T09:57:09.146Z,6.40
2022-10-04T10:00:14.609Z,11.37
2022-10-04T10:03:20.709Z,10.50
2022-10-04T10:07:13.896Z,8.10
2022-10-04T10:11:02.690Z,9.00
2022-10-04T10:14:53.179Z,6.00
2022-10-04T10:17:48.661Z,10.97
2022-10-04T10:20:43.633Z,9.83
2022-10-04T10:24:58.249Z,8.93
2022-10-04T10:28:49.308Z,7.67
2022-10-04T10:31:58.356Z,6.53
2022-10-04T10:35:45.601Z,9.10
2022-10-04T10:39:20.240Z,11.47
2022-10-04T10:42:43.646Z,9.27
2022-10-04T10:45:41.419Z,5.23
2022-10-04T10:48:24.713Z,4.70
2022-10-04T10:51:26.058Z,10.13
2022-10-04T10:54:53.764Z,8.23
2022-10-04T10:58:09.468Z,7.03
2022-10-04T11:01:34.472Z,8.77
2022-10-04T11:04:54.830Z,7.63
2022-10-04T11:08:11.491Z,5.73
2022-10-04T11:11:41.964Z,8.13
2022-10-04T11:15:00.154Z,7.67
2022-10-04T11:19:17.248Z,6.10
2022-10-04T11:23:06.413Z,6.47
2022-10-04T11:26:35.972Z,6.77
2022-10-04T11:30:09.357Z,5.70
2022-10-04T11:34:06.457Z,7.50
2022-10-04T11:37:06.030Z,4.97
2022-10-04T11:40:24.269Z,9.53
2022-10-04T11:43:52.597Z,6.17
2022-10-04T11:46:55.171Z,7.30
2022-10-04T11:50:51.488Z,8.20
2022-10-04T11:54:38.449Z,7.20
2022-10-04T11:57:48.599Z,5.83
2022-10-04T12:00:54.308Z,8.00
2022-10-04T12:04:11.228Z,8.73
2022-10-04T12:07:31.560Z,5.63
2022-10-04T12:11:48.858Z,6.43
2022-10-04T12:14:51.563Z,8.60
2022-10-04T12:18:26.684Z,6.57
2022-10-04T12:22:04.418Z,8.00
2022-10-04T12:25:45.262Z,6.73
2022-10-04T12:29:20.873Z,6.47
2022-10-04T12:32:27.498Z,4.93
2022-10-04T12:36:06.277Z,7.20
2022-10-04T12:39:13.308Z,6.47
2022-10-04T12:42:32.347Z,13.80
2022-10-04T12:45:45.312Z,5.17
2022-10-04T12:49:10.991Z,5.93
2022-10-04T12:52:16.952Z,5.70
2022-10-04T12:55:39.548Z,5.63
2022-10-04T12:58:52.185Z,6.13
2022-10-04T13:01:48.317Z,6.50
2022-10-04T13:04:42.279Z,4.80
2022-10-04T13:08:24.459Z,6.63
2022-10-04T13:11:47.236Z,7.97
2022-10-04T13:14:49.287Z,4.57
2022-10-04T13:18:00.161Z,6.80
2022-10-04T13:21:03.530Z,6.60
2022-10-04T13:23:42.980Z,6.43
2022-10-04T13:27:15.044Z,7.90
2022-10-04T13:30:23.837Z,6.20
2022-10-04T13:33:26.625Z,4.40
2022-10-04T13:36:41.313Z,5.73
2022-10-04T13:39:51.524Z,8.87
2022-10-04T13:43:36.606Z,9.40
2022-10-04T13:46:43.851Z,8.67
2022-10-04T13:49:49.177Z,7.50
2022-10-04T13:53:20.737Z,6.20
2022-10-04T13:56:37.016Z,7.37
2022-10-04T13:59:45.128Z,8.50
2022-10-04T14:03:11.124Z,7.70
2022-10-04T14:06:39.692Z,8.30
2022-10-04T14:09:34.470Z,5.60
2022-10-04T14:13:38.811Z,5.80
2022-10-04T14:17:07.129Z,5.63
2022-10-04T14:20:55.535Z,6.53
2022-10-04T14:24:15.537Z,7.10
2022-10-04T14:27:34.975Z,6.43
2022-10-04T14:31:01.949Z,6.97
2022-10-04T14:34:20.231Z,7.60
2022-10-04T14:37:41.290Z,6.40
2022-10-04T14:40:45.267Z,5.43
2022-10-04T14:44:09.973Z,6.73
2022-10-04T14:47:18.597Z,10.40
2022-10-04T14:50:46.120Z,5.70
2022-10-04T14:54:00.583Z,6.33
2022-10-04T14:56:59.185Z,9.13
2022-10-04T15:00:08.923Z,7.17
2022-10-04T15:03:25.874Z,7.03
2022-10-04T15:05:54.585Z,7.67
2022-10-04T15:08:55.690Z,5.73
2022-10-04T15:15:13.583Z,9.27
2022-10-04T15:18:22.284Z,8.13
2022-10-04T15:21:48.903Z,6.30
2022-10-04T15:24:16.370Z,5.63
2022-10-04T15:27:44.758Z,6.03
2022-10-04T15:30:33.438Z,9.60
2022-10-04T15:33:33.366Z,4.43
2022-10-04T15:37:12.397Z,5.03
2022-10-04T15:39:58.904Z,5.73
2022-10-04T15:42:39.828Z,7.47
2022-10-04T15:45:19.418Z,11.93
2022-10-04T15:48:36.938Z,6.10
2022-10-04T15:51:44.733Z,4.53
2022-10-04T15:55:12.394Z,5.33
2022-10-04T15:57:46.040Z,4.70
2022-10-04T16:01:04.005Z,6.87
2022-10-04T16:04:36.540Z,10.50
2022-10-04T16:07:06.944Z,5.90
2022-10-04T16:09:50.327Z,6.93
2022-10-04T16:13:07.266Z,5.50
2022-10-04T16:15:50.415Z,6.80
2022-10-04T16:19:30.367Z,7.97
2022-10-04T16:22:35.241Z,8.37
2022-10-04T16:25:24.669Z,9.70
2022-10-04T16:29:04.619Z,8.63
2022-10-04T16:32:05.220Z,5.60
2022-10-04T16:35:32.000Z,8.77
2022-10-04T16:38:17.455Z,6.37
2022-10-04T16:41:15.975Z,5.03
2022-10-04T16:43:56.287Z,11.20
2022-10-04T16:46:46.613Z,8.23
2022-10-04T16:50:01.856Z,9.70
2022-10-04T16:53:37.629Z,9.10
2022-10-04T16:56:33.605Z,10.50
2022-10-04T16:59:10.917Z,6.90
2022-10-04T17:02:36.558Z,6.23
2022-10-04T17:05:34.792Z,5.73
2022-10-04T17:08:30.117Z,9.30
2022-10-04T17:11:45.264Z,6.90
2022-10-04T17:14:57.135Z,8.97
2022-10-04T17:18:09.169Z,10.03
2022-10-04T17:20:42.437Z,8.77
2022-10-04T17:23:55.858Z,10.83
2022-10-04T17:27:27.536Z,7.07
2022-10-04T17:30:22.042Z,14.43
2022-10-04T17:33:35.300Z,10.13
2022-10-04T17:36:34.772Z,15.03
2022-10-04T17:40:10.402Z,8.40
2022-10-04T17:43:16.791Z,9.10
2022-10-04T17:46:39.952Z,10.63
2022-10-04T17:49:59.173Z,10.20
2022-10-04T17:53:13.484Z,13.83
2022-10-04T17:55:59.939Z,12.07
2022-10-04T17:58:57.809Z,13.20
2022-10-04T18:01:42.953Z,13.80
2022-10-04T18:04:30.654Z,12.60
2022-10-04T18:07:34.530Z,17.70
2022-10-04T18:10:28.641Z,21.70
2022-10-04T18:13:44.238Z,14.43
2022-10-04T18:16:54.755Z,15.77
2022-10-04T18:20:14.496Z,10.73
2022-10-04T18:22:58.586Z,13.83
2022-10-04T18:25:34.061Z,13.43
2022-10-04T18:28:07.868Z,14.07
2022-10-04T18:31:13.218Z,14.37
2022-10-04T18:33:40.843Z,15.83
2022-10-04T18:36:47.992Z,10.87
2022-10-04T18:39:18.227Z,14.40
2022-10-04T18:42:15.927Z,15.23
2022-10-04T18:45:02.044Z,11.27
2022-10-04T18:47:41.852Z,12.23
2022-10-04T18:50:47.320Z,13.70
2022-10-04T18:54:45.703Z,14.50
2022-10-04T18:58:03.723Z,12.53
2022-10-04T19:01:42.296Z,12.90
2022-10-04T19:05:02.264Z,14.77
2022-10-04T19:08:10.161Z,12.83
2022-10-04T19:11:22.787Z,15.17
2022-10-04T19:14:30.070Z,14.67
2022-10-04T19:17:45.591Z,14.80
2022-10-04T19:20:59.572Z,12.50
2022-10-04T19:23:44.899Z,13.00
2022-10-04T19:26:42.958Z,14.30
2022-10-04T19:29:49.585Z,13.30
2022-10-04T19:33:13.955Z,18.17
2022-10-04T19:36:33.560Z,19.80
2022-10-04T19:39:47.482Z,21.97
2022-10-04T19:42:49.883Z,20.67
2022-10-04T19:46:02.381Z,21.97
2022-10-04T19:48:52.550Z,20.27
2022-10-04T19:51:45.468Z,24.63
2022-10-04T19:54:27.768Z,19.10
2022-10-04T19:57:02.681Z,30.93
2022-10-04T19:59:46.221Z,24.20
2022-10-04T20:02:15.094Z,29.00
2022-10-04T20:04:48.662Z,25.20
2022-10-04T20:07:28.275Z,20.07
2022-10-04T20:10:28.826Z,20.07
2022-10-04T20:13:16.905Z,21.60
2022-10-04T20:15:50.316Z,20.47
2022-10-04T20:18:33.128Z,15.07
2022-10-04T20:21:01.269Z,15.30
2022-10-04T20:23:40.895Z,15.33
2022-10-04T20:26:55.775Z,13.00
2022-10-04T20:29:39.121Z,15.50
2022-10-04T20:32:29.455Z,22.63
2022-10-04T20:35:00.634Z,16.73
2022-10-04T20:38:19.938Z,20.87
2022-10-04T20:40:46.657Z,23.40
2022-10-04T20:43:14.105Z,30.27
2022-10-04T20:45:55.168Z,27.67
2022-10-04T20:48:28.347Z,30.47
2022-10-04T20:50:56.901Z,27.47
2022-10-04T20:53:33.200Z,26.13
2022-10-04T20:56:30.702Z,26.77
2022-10-04T20:59:02.264Z,21.57
2022-10-04T21:01:36.943Z,21.30
2022-10-04T21:04:32.750Z,21.47
2022-10-04T21:07:08.635Z,23.30
2022-10-04T21:09:39.591Z,35.00
2022-10-04T21:12:40.349Z,24.33
2022-10-04T21:15:21.770Z,27.67
2022-10-04T21:18:11.123Z,24.43
2022-10-04T21:20:52.794Z,19.93
2022-10-04T21:23:31.562Z,18.73
2022-10-04T21:26:25.474Z,19.57
2022-10-04T21:29:01.658Z,19.67
2022-10-04T21:31:29.268Z,17.03
2022-10-04T21:33:56.878Z,20.30
2022-10-04T21:36:24.507Z,23.27
2022-10-04T21:38:54.290Z,21.67
2022-10-04T21:41:21.861Z,22.83
2022-10-04T21:43:49.691Z,19.20
2022-10-04T21:46:20.430Z,20.97
2022-10-04T21:48:48.854Z,20.20
2022-10-04T21:51:17.205Z,22.67
2022-10-04T21:53:45.133Z,16.90
2022-10-04T21:56:12.686Z,24.57
2022-10-04T21:58:40.245Z,16.07
2022-10-04T22:01:08.274Z,16.80
2022-10-04T22:03:35.894Z,17.60
2022-10-04T22:06:04.221Z,19.63
2022-10-04T22:08:31.856Z,17.20
2022-10-04T22:10:59.697Z,17.13
2022-10-04T22:13:27.485Z,17.50
2022-10-04T22:15:57.880Z,17.37
2022-10-04T22:18:26.323Z,16.73
2022-10-04T22:20:53.884Z,17.97
2022-10-04T22:23:29.097Z,16.70
2022-10-04T22:25:57.626Z,12.53
2022-10-04T22:28:31.036Z,12.97
2022-10-04T22:30:59.705Z,14.97
2022-10-04T22:33:41.230Z,13.43
2022-10-04T22:36:40.092Z,13.13
2022-10-04T22:39:19.501Z,16.47
2022-10-04T22:41:59.877Z,17.17
2022-10-04T22:44:38.474Z,14.60
2022-10-04T22:47:15.926Z,11.93
2022-10-04T22:49:52.686Z,14.10
2022-10-04T22:52:29.233Z,13.10
2022-10-04T22:55:02.467Z,14.57
2022-10-04T22:57:31.532Z,12.43
2022-10-04T22:59:59.221Z,14.13
2022-10-04T23:02:30.926Z,20.90
2022-10-04T23:05:20.793Z,15.33
2022-10-04T23:07:49.831Z,16.83
2022-10-04T23:10:20.385Z,16.07
2022-10-04T23:12:49.748Z,14.33
2022-10-04T23:15:21.071Z,15.53
2022-10-04T23:17:55.996Z,15.47
2022-10-04T23:20:24.519Z,16.07
2022-10-04T23:22:55.806Z,14.67
2022-10-04T23:25:30.716Z,15.40
2022-10-04T23:28:18.919Z,15.23
2022-10-04T23:31:13.851Z,15.70
2022-10-04T23:33:42.300Z,16.20
2022-10-04T23:36:16.600Z,13.80
2022-10-04T23:39:01.845Z,24.17
2022-10-04T23:41:29.882Z,16.17
2022-10-04T23:43:57.567Z,18.33
2022-10-04T23:46:25.666Z,14.60
2022-10-04T23:48:53.368Z,17.67
2022-10-04T23:51:21.712Z,17.93
2022-10-04T23:53:50.681Z,16.30
2022-10-04T23:56:28.508Z,17.20
2022-10-04T23:58:59.560Z,16.63
